Hamlin, Texas
Current Conditions -  °F | °C
As of 2:15 PM on Friday 19 Dec 2014 (Local Time) from KSWW Reporting Station
Overcast Overcast  
Wind Chill: 46°   Ceiling: 1700
Heat Index: 46°   Visibility: 10mi
Dew Point: 38°   Wind: 0mph
Humidity: 74%   Direction: NA
Pressure: 30.18"   Gusts: NA
Location:  32.88°N, 100.13°W
Report Text: KSWW 192015Z AUTO 00000KT 10SM OVC017 08/04 A3018 RMK AO2 T00800036
Loading
Personal Weather Stations






























Interactive Weather Map New forecast layout! Learn more

10-Day Weather Forecast

Advertisements
Track Severe Weather on mobile